sensor_id;sensor_type;location;lat;lon;timestamp;pressure;altitude;pressure_sealevel;temperature;humidity
28911;BME280;16028;42.642;23.310;2022-08-05T00:02:14;94146.59;;;19.90;71.91
28911;BME280;16028;42.642;23.310;2022-08-05T00:04:41;94146.34;;;19.85;71.92
28911;BME280;16028;42.642;23.310;2022-08-05T00:07:10;94145.97;;;19.81;72.90
28911;BME280;16028;42.642;23.310;2022-08-05T00:09:37;94139.66;;;19.82;72.75
28911;BME280;16028;42.642;23.310;2022-08-05T00:12:04;94138.84;;;19.82;72.69
28911;BME280;16028;42.642;23.310;2022-08-05T00:14:31;94138.44;;;19.78;73.18
28911;BME280;16028;42.642;23.310;2022-08-05T00:16:58;94135.59;;;19.73;73.67
28911;BME280;16028;42.642;23.310;2022-08-05T00:19:26;94136.41;;;19.74;73.40
28911;BME280;16028;42.642;23.310;2022-08-05T00:21:53;94137.41;;;19.73;73.44
28911;BME280;16028;42.642;23.310;2022-08-05T00:24:20;94138.44;;;19.72;73.23
28911;BME280;16028;42.642;23.310;2022-08-05T00:26:47;94129.88;;;19.70;73.16
28911;BME280;16028;42.642;23.310;2022-08-05T00:29:14;94135.16;;;19.70;73.86
28911;BME280;16028;42.642;23.310;2022-08-05T00:31:41;94130.69;;;19.64;73.50
28911;BME280;16028;42.642;23.310;2022-08-05T00:34:07;94133.72;;;19.61;73.83
28911;BME280;16028;42.642;23.310;2022-08-05T00:36:36;94125.22;;;19.59;74.71
28911;BME280;16028;42.642;23.310;2022-08-05T00:39:02;94132.31;;;19.58;74.69
28911;BME280;16028;42.642;23.310;2022-08-05T00:41:30;94127.81;;;19.52;74.88
28911;BME280;16028;42.642;23.310;2022-08-05T00:43:58;94127.19;;;19.50;74.75
28911;BME280;16028;42.642;23.310;2022-08-05T00:46:25;94123.56;;;19.51;74.74
28911;BME280;16028;42.642;23.310;2022-08-05T00:48:52;94117.66;;;19.49;74.64
28911;BME280;16028;42.642;23.310;2022-08-05T00:51:20;94122.94;;;19.42;74.32
28911;BME280;16028;42.642;23.310;2022-08-05T00:53:49;94116.38;;;19.38;74.38
28911;BME280;16028;42.642;23.310;2022-08-05T00:56:16;94120.84;;;19.38;74.55
28911;BME280;16028;42.642;23.310;2022-08-05T00:58:43;94119.19;;;19.37;75.04
28911;BME280;16028;42.642;23.310;2022-08-05T01:01:11;94125.56;;;19.42;75.52
28911;BME280;16028;42.642;23.310;2022-08-05T01:03:40;94128.63;;;19.46;75.87
28911;BME280;16028;42.642;23.310;2022-08-05T01:06:08;94122.13;;;19.48;75.82
28911;BME280;16028;42.642;23.310;2022-08-05T01:08:35;94119.88;;;19.45;74.87
28911;BME280;16028;42.642;23.310;2022-08-05T01:11:09;94114.97;;;19.36;74.76
28911;BME280;16028;42.642;23.310;2022-08-05T01:13:43;94135.22;;;19.29;74.77
28911;BME280;16028;42.642;23.310;2022-08-05T01:16:15;94134.63;;;19.27;74.94
28911;BME280;16028;42.642;23.310;2022-08-05T01:18:45;94138.47;;;19.31;74.95
28911;BME280;16028;42.642;23.310;2022-08-05T01:21:41;94132.56;;;19.29;74.78
28911;BME280;16028;42.642;23.310;2022-08-05T01:24:22;94128.69;;;19.25;73.47
28911;BME280;16028;42.642;23.310;2022-08-05T01:26:59;94131.16;;;19.26;73.77
28911;BME280;16028;42.642;23.310;2022-08-05T01:29:33;94125.25;;;19.24;74.33
28911;BME280;16028;42.642;23.310;2022-08-05T01:32:05;94133.56;;;19.21;75.09
28911;BME280;16028;42.642;23.310;2022-08-05T01:34:37;94134.97;;;19.17;75.47
28911;BME280;16028;42.642;23.310;2022-08-05T01:37:11;94131.53;;;19.17;75.81
28911;BME280;16028;42.642;23.310;2022-08-05T01:39:40;94127.84;;;19.18;76.15
28911;BME280;16028;42.642;23.310;2022-08-05T01:42:12;94133.53;;;19.15;75.57
28911;BME280;16028;42.642;23.310;2022-08-05T01:44:42;94129.47;;;19.12;75.85
28911;BME280;16028;42.642;23.310;2022-08-05T01:47:10;94131.47;;;19.03;76.20
28911;BME280;16028;42.642;23.310;2022-08-05T01:49:40;94134.88;;;18.97;76.20
28911;BME280;16028;42.642;23.310;2022-08-05T01:52:09;94134.03;;;18.90;76.72
28911;BME280;16028;42.642;23.310;2022-08-05T01:54:42;94134.84;;;18.91;77.14
28911;BME280;16028;42.642;23.310;2022-08-05T01:57:13;94132.84;;;18.99;78.15
28911;BME280;16028;42.642;23.310;2022-08-05T01:59:47;94130.59;;;18.96;77.93
28911;BME280;16028;42.642;23.310;2022-08-05T02:02:16;94127.75;;;18.91;78.35
28911;BME280;16028;42.642;23.310;2022-08-05T02:04:46;94133.81;;;18.85;78.07
28911;BME280;16028;42.642;23.310;2022-08-05T02:07:14;94134.16;;;18.76;78.48
28911;BME280;16028;42.642;23.310;2022-08-05T02:09:41;94139.00;;;18.72;78.93
28911;BME280;16028;42.642;23.310;2022-08-05T02:12:12;94135.72;;;18.70;79.43
28911;BME280;16028;42.642;23.310;2022-08-05T02:14:47;94142.59;;;18.65;79.63
28911;BME280;16028;42.642;23.310;2022-08-05T02:17:23;94134.47;;;18.60;79.85
28911;BME280;16028;42.642;23.310;2022-08-05T02:19:57;94135.84;;;18.56;80.54
28911;BME280;16028;42.642;23.310;2022-08-05T02:22:28;94133.22;;;18.56;80.95
28911;BME280;16028;42.642;23.310;2022-08-05T02:25:00;94132.78;;;18.52;81.18
28911;BME280;16028;42.642;23.310;2022-08-05T02:27:29;94134.41;;;18.53;81.72
28911;BME280;16028;42.642;23.310;2022-08-05T02:30:01;94131.56;;;18.55;81.80
28911;BME280;16028;42.642;23.310;2022-08-05T02:32:30;94132.78;;;18.52;81.98
28911;BME280;16028;42.642;23.310;2022-08-05T02:35:00;94139.25;;;18.49;81.99
28911;BME280;16028;42.642;23.310;2022-08-05T02:37:30;94128.72;;;18.49;82.48
28911;BME280;16028;42.642;23.310;2022-08-05T02:40:00;94127.44;;;18.45;82.66
28911;BME280;16028;42.642;23.310;2022-08-05T02:42:27;94127.59;;;18.37;82.81
28911;BME280;16028;42.642;23.310;2022-08-05T02:44:56;94126.78;;;18.37;83.55
28911;BME280;16028;42.642;23.310;2022-08-05T02:47:26;94123.97;;;18.45;83.63
28911;BME280;16028;42.642;23.310;2022-08-05T02:49:55;94119.81;;;18.51;84.34
28911;BME280;16028;42.642;23.310;2022-08-05T02:52:23;94121.78;;;18.48;84.05
28911;BME280;16028;42.642;23.310;2022-08-05T02:54:50;94122.56;;;18.42;83.81
28911;BME280;16028;42.642;23.310;2022-08-05T02:57:19;94127.59;;;18.37;84.17
28911;BME280;16028;42.642;23.310;2022-08-05T02:59:48;94128.16;;;18.33;83.88
28911;BME280;16028;42.642;23.310;2022-08-05T03:02:19;94125.53;;;18.33;83.92
28911;BME280;16028;42.642;23.310;2022-08-05T03:04:50;94123.94;;;18.38;84.16
28911;BME280;16028;42.642;23.310;2022-08-05T03:07:20;94127.16;;;18.34;83.61
28911;BME280;16028;42.642;23.310;2022-08-05T03:09:47;94126.09;;;18.28;83.59
28911;BME280;16028;42.642;23.310;2022-08-05T03:12:28;94124.03;;;18.24;83.56
28911;BME280;16028;42.642;23.310;2022-08-05T03:14:55;94130.31;;;18.23;84.05
28911;BME280;16028;42.642;23.310;2022-08-05T03:17:21;94128.06;;;18.20;84.29
28911;BME280;16028;42.642;23.310;2022-08-05T03:19:50;94126.84;;;18.22;84.46
28911;BME280;16028;42.642;23.310;2022-08-05T03:22:16;94127.66;;;18.23;84.22
28911;BME280;16028;42.642;23.310;2022-08-05T03:24:45;94131.34;;;18.22;83.89
28911;BME280;16028;42.642;23.310;2022-08-05T03:27:12;94136.16;;;18.18;84.09
28911;BME280;16028;42.642;23.310;2022-08-05T03:29:39;94130.69;;;18.20;84.01
28911;BME280;16028;42.642;23.310;2022-08-05T03:32:07;94133.75;;;18.23;83.71
28911;BME280;16028;42.642;23.310;2022-08-05T03:34:34;94128.50;;;18.23;83.71
28911;BME280;16028;42.642;23.310;2022-08-05T03:37:03;94129.88;;;18.19;83.21
28911;BME280;16028;42.642;23.310;2022-08-05T03:39:31;94129.03;;;18.12;83.71
28911;BME280;16028;42.642;23.310;2022-08-05T03:41:58;94132.22;;;18.08;83.91
28911;BME280;16028;42.642;23.310;2022-08-05T03:44:24;94139.72;;;18.11;84.15
28911;BME280;16028;42.642;23.310;2022-08-05T03:46:51;94129.03;;;18.12;84.39
28911;BME280;16028;42.642;23.310;2022-08-05T03:49:18;94131.06;;;18.17;84.36
28911;BME280;16028;42.642;23.310;2022-08-05T03:51:55;94126.41;;;18.19;85.34
28911;BME280;16028;42.642;23.310;2022-08-05T03:54:32;94133.31;;;18.20;85.18
28911;BME280;16028;42.642;23.310;2022-08-05T03:57:04;94133.97;;;18.22;85.04
28911;BME280;16028;42.642;23.310;2022-08-05T03:59:38;94131.50;;;18.20;86.56
28911;BME280;16028;42.642;23.310;2022-08-05T04:02:07;94129.25;;;18.17;88.34
28911;BME280;16028;42.642;23.310;2022-08-05T04:04:36;94134.09;;;18.14;89.63
28911;BME280;16028;42.642;23.310;2022-08-05T04:07:05;94133.66;;;18.10;90.67
28911;BME280;16028;42.642;23.310;2022-08-05T04:09:34;94133.22;;;18.07;90.98
28911;BME280;16028;42.642;23.310;2022-08-05T04:12:01;94132.38;;;18.06;91.63
28911;BME280;16028;42.642;23.310;2022-08-05T04:14:28;94129.75;;;18.06;92.25
28911;BME280;16028;42.642;23.310;2022-08-05T04:16:57;94136.50;;;18.09;92.30
28911;BME280;16028;42.642;23.310;2022-08-05T04:19:24;94132.44;;;18.13;92.63
28911;BME280;16028;42.642;23.310;2022-08-05T04:21:50;94131.28;;;18.15;92.52
28911;BME280;16028;42.642;23.310;2022-08-05T04:24:17;94130.13;;;18.24;91.78
28911;BME280;16028;42.642;23.310;2022-08-05T04:26:45;94124.91;;;18.31;90.58
28911;BME280;16028;42.642;23.310;2022-08-05T04:29:12;94125.97;;;18.36;88.67
28911;BME280;16028;42.642;23.310;2022-08-05T04:31:39;94118.72;;;18.45;86.73
28911;BME280;16028;42.642;23.310;2022-08-05T04:34:06;94122.25;;;18.52;85.54
28911;BME280;16028;42.642;23.310;2022-08-05T04:36:32;94123.72;;;18.61;84.29
28911;BME280;16028;42.642;23.310;2022-08-05T04:38:59;94124.16;;;18.65;84.18
28911;BME280;16028;42.642;23.310;2022-08-05T04:41:26;94125.44;;;18.75;85.07
28911;BME280;16028;42.642;23.310;2022-08-05T04:43:54;94123.25;;;18.85;84.50
28911;BME280;16028;42.642;23.310;2022-08-05T04:46:21;94119.28;;;19.02;83.01
28911;BME280;16028;42.642;23.310;2022-08-05T04:48:48;94125.00;;;19.13;82.82
28911;BME280;16028;42.642;23.310;2022-08-05T04:51:14;94118.78;;;19.27;79.87
28911;BME280;16028;42.642;23.310;2022-08-05T04:53:42;94125.16;;;19.45;79.96
28911;BME280;16028;42.642;23.310;2022-08-05T04:56:08;94127.22;;;19.57;78.33
28911;BME280;16028;42.642;23.310;2022-08-05T04:58:35;94123.38;;;19.66;77.87
28911;BME280;16028;42.642;23.310;2022-08-05T05:01:04;94120.34;;;19.82;75.85
28911;BME280;16028;42.642;23.310;2022-08-05T05:03:31;94126.69;;;19.94;75.81
28911;BME280;16028;42.642;23.310;2022-08-05T05:05:58;94119.97;;;20.04;74.13
28911;BME280;16028;42.642;23.310;2022-08-05T05:08:24;94121.41;;;20.14;73.61
28911;BME280;16028;42.642;23.310;2022-08-05T05:10:51;94124.88;;;20.14;74.92
28911;BME280;16028;42.642;23.310;2022-08-05T05:13:20;94121.41;;;20.14;75.36
28911;BME280;16028;42.642;23.310;2022-08-05T05:15:47;94120.00;;;20.18;76.29
28911;BME280;16028;42.642;23.310;2022-08-05T05:18:15;94123.63;;;20.17;74.31
28911;BME280;16028;42.642;23.310;2022-08-05T05:20:42;94122.22;;;20.14;74.47
28911;BME280;16028;42.642;23.310;2022-08-05T05:23:09;94119.56;;;20.07;74.37
28911;BME280;16028;42.642;23.310;2022-08-05T05:25:37;94119.56;;;20.07;75.00
28911;BME280;16028;42.642;23.310;2022-08-05T05:28:04;94124.25;;;20.05;73.81
28911;BME280;16028;42.642;23.310;2022-08-05T05:30:31;94112.47;;;20.01;75.86
28911;BME280;16028;42.642;23.310;2022-08-05T05:32:58;94122.03;;;20.02;75.89
28911;BME280;16028;42.642;23.310;2022-08-05T05:35:26;94115.53;;;20.18;76.00
28911;BME280;16028;42.642;23.310;2022-08-05T05:37:55;94117.78;;;20.41;74.80
28911;BME280;16028;42.642;23.310;2022-08-05T05:40:23;94119.34;;;20.75;72.95
28911;BME280;16028;42.642;23.310;2022-08-05T05:42:50;94115.66;;;20.95;70.42
28911;BME280;16028;42.642;23.310;2022-08-05T05:45:18;94113.41;;;21.12;70.29
28911;BME280;16028;42.642;23.310;2022-08-05T05:47:45;94112.97;;;21.22;71.78
28911;BME280;16028;42.642;23.310;2022-08-05T05:50:14;94113.50;;;21.37;70.34
28911;BME280;16028;42.642;23.310;2022-08-05T05:52:42;94112.97;;;21.59;69.77
28911;BME280;16028;42.642;23.310;2022-08-05T05:55:11;94112.00;;;21.85;68.49
28911;BME280;16028;42.642;23.310;2022-08-05T05:57:39;94115.25;;;22.19;66.26
28911;BME280;16028;42.642;23.310;2022-08-05T06:00:09;94114.66;;;22.41;65.07
28911;BME280;16028;42.642;23.310;2022-08-05T06:02:36;94120.78;;;22.42;66.08
28911;BME280;16028;42.642;23.310;2022-08-05T06:05:03;94119.34;;;22.46;65.72
28911;BME280;16028;42.642;23.310;2022-08-05T06:07:32;94114.19;;;22.51;65.21
28911;BME280;16028;42.642;23.310;2022-08-05T06:10:00;94122.91;;;22.58;65.67
28911;BME280;16028;42.642;23.310;2022-08-05T06:12:26;94119.22;;;22.59;65.70
28911;BME280;16028;42.642;23.310;2022-08-05T06:14:53;94126.28;;;22.72;61.22
28911;BME280;16028;42.642;23.310;2022-08-05T06:17:20;94114.09;;;22.82;63.80
28911;BME280;16028;42.642;23.310;2022-08-05T06:19:47;94130.59;;;23.09;60.71
28911;BME280;16028;42.642;23.310;2022-08-05T06:22:21;94128.28;;;23.12;61.60
28911;BME280;16028;42.642;23.310;2022-08-05T06:24:49;94119.75;;;23.29;61.01
28911;BME280;16028;42.642;23.310;2022-08-05T06:27:17;94122.16;;;23.30;62.01
28911;BME280;16028;42.642;23.310;2022-08-05T06:29:44;94126.38;;;23.38;62.17
28911;BME280;16028;42.642;23.310;2022-08-05T06:32:11;94113.53;;;23.53;62.25
28911;BME280;16028;42.642;23.310;2022-08-05T06:34:38;94118.16;;;23.76;58.45
28911;BME280;16028;42.642;23.310;2022-08-05T06:37:05;94120.53;;;23.95;59.51
28911;BME280;16028;42.642;23.310;2022-08-05T06:39:32;94119.72;;;24.06;59.68
28911;BME280;16028;42.642;23.310;2022-08-05T06:42:00;94119.47;;;24.26;58.67
28911;BME280;16028;42.642;23.310;2022-08-05T06:44:28;94119.25;;;24.28;59.86
28911;BME280;16028;42.642;23.310;2022-08-05T06:46:56;94111.63;;;24.31;60.64
28911;BME280;16028;42.642;23.310;2022-08-05T06:49:23;94115.34;;;24.53;60.73
28911;BME280;16028;42.642;23.310;2022-08-05T06:51:51;94118.13;;;24.70;60.56
28911;BME280;16028;42.642;23.310;2022-08-05T06:54:17;94117.66;;;24.73;60.32
28911;BME280;16028;42.642;23.310;2022-08-05T06:56:44;94110.75;;;24.72;60.18
28911;BME280;16028;42.642;23.310;2022-08-05T06:59:11;94118.03;;;24.65;58.91
28911;BME280;16028;42.642;23.310;2022-08-05T07:01:40;94116.84;;;24.49;59.89
28911;BME280;16028;42.642;23.310;2022-08-05T07:04:07;94114.66;;;24.46;59.30
28911;BME280;16028;42.642;23.310;2022-08-05T07:06:33;94110.97;;;24.59;56.95
28911;BME280;16028;42.642;23.310;2022-08-05T07:09:00;94114.91;;;24.68;55.40
28911;BME280;16028;42.642;23.310;2022-08-05T07:11:27;94113.50;;;24.65;56.86
28911;BME280;16028;42.642;23.310;2022-08-05T07:13:55;94117.44;;;24.63;56.98
28911;BME280;16028;42.642;23.310;2022-08-05T07:16:41;94119.75;;;24.59;56.75
28911;BME280;16028;42.642;23.310;2022-08-05T07:19:24;94117.56;;;24.56;55.49
28911;BME280;16028;42.642;23.310;2022-08-05T07:21:51;94121.81;;;24.57;55.30
28911;BME280;16028;42.642;23.310;2022-08-05T07:24:18;94116.50;;;24.46;56.42
28911;BME280;16028;42.642;23.310;2022-08-05T07:26:46;94121.81;;;24.34;57.04
28911;BME280;16028;42.642;23.310;2022-08-05T07:29:13;94121.34;;;24.37;55.55
28911;BME280;16028;42.642;23.310;2022-08-05T07:31:41;94118.19;;;24.29;56.92
28911;BME280;16028;42.642;23.310;2022-08-05T07:34:08;94124.44;;;24.22;57.50
28911;BME280;16028;42.642;23.310;2022-08-05T07:36:35;94122.22;;;24.19;57.71
28911;BME280;16028;42.642;23.310;2022-08-05T07:39:07;94119.28;;;24.09;59.89
28911;BME280;16028;42.642;23.310;2022-08-05T07:41:34;94120.03;;;23.87;60.52
28911;BME280;16028;42.642;23.310;2022-08-05T07:44:02;94119.41;;;23.73;60.61
28911;BME280;16028;42.642;23.310;2022-08-05T07:46:31;94117.88;;;23.95;57.73
28911;BME280;16028;42.642;23.310;2022-08-05T07:49:03;94120.66;;;24.00;57.13
28911;BME280;16028;42.642;23.310;2022-08-05T07:51:32;94115.84;;;24.09;57.75
28911;BME280;16028;42.642;23.310;2022-08-05T07:54:00;94119.06;;;24.11;58.45
28911;BME280;16028;42.642;23.310;2022-08-05T07:56:28;94110.31;;;24.22;57.49
28911;BME280;16028;42.642;23.310;2022-08-05T07:58:56;94114.63;;;24.35;56.62
28911;BME280;16028;42.642;23.310;2022-08-05T08:01:23;94118.34;;;24.34;57.68
28911;BME280;16028;42.642;23.310;2022-08-05T08:03:52;94114.31;;;24.43;57.05
28911;BME280;16028;42.642;23.310;2022-08-05T08:06:20;94124.13;;;24.54;55.22
28911;BME280;16028;42.642;23.310;2022-08-05T08:08:47;94125.66;;;24.61;55.29
28911;BME280;16028;42.642;23.310;2022-08-05T08:11:14;94120.91;;;24.63;54.86
28911;BME280;16028;42.642;23.310;2022-08-05T08:13:41;94121.59;;;24.59;55.82
28911;BME280;16028;42.642;23.310;2022-08-05T08:16:08;94116.84;;;24.61;57.94
28911;BME280;16028;42.642;23.310;2022-08-05T08:18:34;94111.31;;;24.62;56.72
28911;BME280;16028;42.642;23.310;2022-08-05T08:21:01;94114.78;;;24.63;55.84
28911;BME280;16028;42.642;23.310;2022-08-05T08:23:30;94115.72;;;24.68;55.48
28911;BME280;16028;42.642;23.310;2022-08-05T08:25:56;94117.59;;;24.91;53.89
28911;BME280;16028;42.642;23.310;2022-08-05T08:28:23;94114.22;;;25.07;52.86
28911;BME280;16028;42.642;23.310;2022-08-05T08:30:50;94103.31;;;25.20;53.03
28911;BME280;16028;42.642;23.310;2022-08-05T08:33:17;94107.78;;;25.32;50.99
28911;BME280;16028;42.642;23.310;2022-08-05T08:35:43;94101.78;;;25.36;51.23
28911;BME280;16028;42.642;23.310;2022-08-05T08:38:10;94108.34;;;25.45;50.93
28911;BME280;16028;42.642;23.310;2022-08-05T08:40:39;94106.72;;;25.44;50.88
28911;BME280;16028;42.642;23.310;2022-08-05T08:43:06;94105.69;;;25.45;51.79
28911;BME280;16028;42.642;23.310;2022-08-05T08:45:37;94106.25;;;25.47;50.50
28911;BME280;16028;42.642;23.310;2022-08-05T08:48:05;94104.72;;;25.63;48.39
28911;BME280;16028;42.642;23.310;2022-08-05T08:50:32;94099.38;;;25.63;48.52
28911;BME280;16028;42.642;23.310;2022-08-05T08:53:02;94102.78;;;25.58;49.53
28911;BME280;16028;42.642;23.310;2022-08-05T08:55:30;94105.88;;;25.67;47.00
28911;BME280;16028;42.642;23.310;2022-08-05T08:57:59;94103.00;;;25.85;43.26
28911;BME280;16028;42.642;23.310;2022-08-05T09:00:26;94095.59;;;25.87;44.89
28911;BME280;16028;42.642;23.310;2022-08-05T09:02:53;94099.84;;;25.88;43.77
28911;BME280;16028;42.642;23.310;2022-08-05T09:05:20;94096.22;;;25.94;43.51
28911;BME280;16028;42.642;23.310;2022-08-05T09:07:47;94090.91;;;25.94;43.60
28911;BME280;16028;42.642;23.310;2022-08-05T09:10:14;94090.59;;;25.91;45.30
28911;BME280;16028;42.642;23.310;2022-08-05T09:12:41;94090.59;;;25.91;45.09
28911;BME280;16028;42.642;23.310;2022-08-05T09:15:09;94082.19;;;25.99;44.02
28911;BME280;16028;42.642;23.310;2022-08-05T09:17:36;94083.25;;;25.98;44.26
28911;BME280;16028;42.642;23.310;2022-08-05T09:20:04;94074.28;;;26.04;43.28
28911;BME280;16028;42.642;23.310;2022-08-05T09:23:02;94070.09;;;26.08;46.29
28911;BME280;16028;42.642;23.310;2022-08-05T09:25:29;94067.19;;;26.09;45.74
28911;BME280;16028;42.642;23.310;2022-08-05T09:27:56;94066.13;;;26.10;43.80
28911;BME280;16028;42.642;23.310;2022-08-05T09:30:32;94064.53;;;26.09;44.59
28911;BME280;16028;42.642;23.310;2022-08-05T09:33:00;94071.38;;;26.05;43.59
28911;BME280;16028;42.642;23.310;2022-08-05T09:35:27;94059.56;;;26.01;44.22
28911;BME280;16028;42.642;23.310;2022-08-05T09:37:55;94057.97;;;26.00;44.58
28911;BME280;16028;42.642;23.310;2022-08-05T09:40:31;94056.53;;;26.09;43.43
28911;BME280;16028;42.642;23.310;2022-08-05T09:42:58;94057.59;;;26.25;44.01
28911;BME280;16028;42.642;23.310;2022-08-05T09:45:40;94051.31;;;26.31;43.22
28911;BME280;16028;42.642;23.310;2022-08-05T09:48:20;94052.94;;;26.32;43.51
28911;BME280;16028;42.642;23.310;2022-08-05T09:50:51;94046.69;;;26.26;43.69
28911;BME280;16028;42.642;23.310;2022-08-05T09:53:18;94048.31;;;26.27;43.80
28911;BME280;16028;42.642;23.310;2022-08-05T09:55:45;94049.34;;;26.43;43.60
28911;BME280;16028;42.642;23.310;2022-08-05T09:58:14;94044.09;;;26.48;42.75
28911;BME280;16028;42.642;23.310;2022-08-05T10:00:56;94049.19;;;26.50;43.14
28911;BME280;16028;42.642;23.310;2022-08-05T10:03:26;94041.97;;;26.67;41.54
28911;BME280;16028;42.642;23.310;2022-08-05T10:06:01;94039.38;;;26.72;43.36
28911;BME280;16028;42.642;23.310;2022-08-05T10:08:28;94032.22;;;26.77;42.22
28911;BME280;16028;42.642;23.310;2022-08-05T10:10:55;94031.03;;;26.85;42.49
28911;BME280;16028;42.642;23.310;2022-08-05T10:13:26;94033.84;;;26.95;41.57
28911;BME280;16028;42.642;23.310;2022-08-05T10:15:54;94039.63;;;27.09;40.93
28911;BME280;16028;42.642;23.310;2022-08-05T10:18:22;94033.03;;;27.16;39.14
28911;BME280;16028;42.642;23.310;2022-08-05T10:20:53;94024.03;;;27.22;40.65
28911;BME280;16028;42.642;23.310;2022-08-05T10:23:21;94032.44;;;27.31;42.35
28911;BME280;16028;42.642;23.310;2022-08-05T10:25:48;94027.78;;;27.43;38.73
28911;BME280;16028;42.642;23.310;2022-08-05T10:28:15;94020.06;;;27.47;38.31
28911;BME280;16028;42.642;23.310;2022-08-05T10:30:42;94021.03;;;27.41;40.61
28911;BME280;16028;42.642;23.310;2022-08-05T10:33:11;94018.50;;;27.51;39.14
28911;BME280;16028;42.642;23.310;2022-08-05T10:35:38;94021.44;;;27.49;40.11
28911;BME280;16028;42.642;23.310;2022-08-05T10:38:05;94020.22;;;27.62;37.74
28911;BME280;16028;42.642;23.310;2022-08-05T10:40:35;94011.69;;;27.65;41.38
28911;BME280;16028;42.642;23.310;2022-08-05T10:43:12;94017.59;;;27.67;40.60
28911;BME280;16028;42.642;23.310;2022-08-05T10:45:54;94006.97;;;27.72;40.39
28911;BME280;16028;42.642;23.310;2022-08-05T10:48:34;94006.78;;;27.83;38.13
28911;BME280;16028;42.642;23.310;2022-08-05T10:51:03;94001.44;;;27.83;38.04
28911;BME280;16028;42.642;23.310;2022-08-05T10:53:36;94002.03;;;27.85;38.52
28911;BME280;16028;42.642;23.310;2022-08-05T10:56:05;94000.69;;;27.88;40.29
28911;BME280;16028;42.642;23.310;2022-08-05T10:58:32;94006.97;;;28.04;36.85
28911;BME280;16028;42.642;23.310;2022-08-05T11:01:03;94000.81;;;28.03;37.50
28911;BME280;16028;42.642;23.310;2022-08-05T11:03:32;93991.81;;;28.09;37.77
28911;BME280;16028;42.642;23.310;2022-08-05T11:06:05;93994.28;;;28.16;36.88
28911;BME280;16028;42.642;23.310;2022-08-05T11:08:32;93986.03;;;28.22;40.21
28911;BME280;16028;42.642;23.310;2022-08-05T11:11:32;93991.47;;;28.37;39.81
28911;BME280;16028;42.642;23.310;2022-08-05T11:14:00;93988.56;;;28.39;39.67
28911;BME280;16028;42.642;23.310;2022-08-05T11:16:28;93986.47;;;28.46;37.80
28911;BME280;16028;42.642;23.310;2022-08-05T11:19:25;93987.84;;;28.54;37.00
28911;BME280;16028;42.642;23.310;2022-08-05T11:21:53;93994.63;;;28.66;36.59
28911;BME280;16028;42.642;23.310;2022-08-05T11:24:21;93983.88;;;28.61;40.88
28911;BME280;16028;42.642;23.310;2022-08-05T11:26:49;93983.69;;;28.68;39.15
28911;BME280;16028;42.642;23.310;2022-08-05T11:29:35;93978.63;;;28.76;40.19
28911;BME280;16028;42.642;23.310;2022-08-05T11:32:24;93978.91;;;28.80;39.50
28911;BME280;16028;42.642;23.310;2022-08-05T11:34:53;93974.16;;;28.92;39.66
28911;BME280;16028;42.642;23.310;2022-08-05T11:37:40;93962.72;;;29.07;38.13
28911;BME280;16028;42.642;23.310;2022-08-05T11:40:07;93959.22;;;29.06;38.10
28911;BME280;16028;42.642;23.310;2022-08-05T11:42:39;93959.78;;;29.13;35.07
28911;BME280;16028;42.642;23.310;2022-08-05T11:45:07;93963.53;;;29.12;39.08
28911;BME280;16028;42.642;23.310;2022-08-05T11:47:35;93961.94;;;29.21;38.45
28911;BME280;16028;42.642;23.310;2022-08-05T11:50:04;93960.91;;;29.32;38.38
28911;BME280;16028;42.642;23.310;2022-08-05T11:52:31;93962.56;;;29.38;36.78
28911;BME280;16028;42.642;23.310;2022-08-05T11:54:58;93957.47;;;29.52;34.98
28911;BME280;16028;42.642;23.310;2022-08-05T11:57:28;93955.69;;;29.83;32.92
28911;BME280;16028;42.642;23.310;2022-08-05T11:59:56;93956.69;;;29.52;33.89
28911;BME280;16028;42.642;23.310;2022-08-05T12:02:24;93953.50;;;29.60;32.13
28911;BME280;16028;42.642;23.310;2022-08-05T12:04:55;93952.91;;;29.42;32.64
28911;BME280;16028;42.642;23.310;2022-08-05T12:07:24;93954.75;;;29.27;33.06
28911;BME280;16028;42.642;23.310;2022-08-05T12:09:52;93952.28;;;29.15;39.10
28911;BME280;16028;42.642;23.310;2022-08-05T12:12:23;93942.09;;;29.12;33.97
28911;BME280;16028;42.642;23.310;2022-08-05T12:14:52;93953.09;;;29.16;35.36
28911;BME280;16028;42.642;23.310;2022-08-05T12:17:19;93951.75;;;29.23;37.89
28911;BME280;16028;42.642;23.310;2022-08-05T12:19:47;93937.06;;;29.26;36.50
28911;BME280;16028;42.642;23.310;2022-08-05T12:22:21;93940.06;;;29.45;33.26
28911;BME280;16028;42.642;23.310;2022-08-05T12:24:49;93937.41;;;29.55;41.17
28911;BME280;16028;42.642;23.310;2022-08-05T12:27:20;93943.31;;;29.72;37.71
28911;BME280;16028;42.642;23.310;2022-08-05T12:29:58;93937.19;;;29.86;38.62
28911;BME280;16028;42.642;23.310;2022-08-05T12:32:25;93932.63;;;30.07;41.12
28911;BME280;16028;42.642;23.310;2022-08-05T12:34:52;93925.88;;;30.20;42.06
28911;BME280;16028;42.642;23.310;2022-08-05T12:37:19;93918.59;;;30.35;33.60
28911;BME280;16028;42.642;23.310;2022-08-05T12:39:46;93924.53;;;30.37;34.48
28911;BME280;16028;42.642;23.310;2022-08-05T12:42:16;93926.41;;;30.37;34.01
28911;BME280;16028;42.642;23.310;2022-08-05T12:44:44;93924.81;;;30.31;46.61
28911;BME280;16028;42.642;23.310;2022-08-05T12:47:11;93921.06;;;30.07;33.01
28911;BME280;16028;42.642;23.310;2022-08-05T12:49:43;93915.94;;;29.65;38.01
28911;BME280;16028;42.642;23.310;2022-08-05T12:52:14;93923.84;;;29.09;35.14
28911;BME280;16028;42.642;23.310;2022-08-05T12:54:42;93916.78;;;28.83;36.95
28911;BME280;16028;42.642;23.310;2022-08-05T12:57:10;93911.31;;;28.63;37.11
28911;BME280;16028;42.642;23.310;2022-08-05T12:59:47;93909.38;;;28.48;35.83
28911;BME280;16028;42.642;23.310;2022-08-05T13:02:18;93907.44;;;28.38;35.13